Time;durP1;ratioP1;P1;durP2;ratioP2;P2;SDS_P1;SDS_P2;PMS_P1;PMS_P2;Temp;Humidity;BMP_temperature;BMP_pressure;BME280_temperature;BME280_humidity;BME280_pressure;Samples;Min_cycle;Max_cycle;Signal;HPM_P1;HPM_P2
2022/12/02 00:01:31;;;;;;;4.03;0.95;;;2.80;99.90;;;;;;6277352;22;20452;-88
2022/12/02 00:07:38;;;;;;;4.13;1.33;;;2.80;99.90;;;;;;6277152;22;20053;-88
2022/12/02 00:10:26;;;;;;;2.43;1.07;;;2.80;99.90;;;;;;6225113;22;20019;-88
2022/12/02 00:12:52;;;;;;;0.80;0.55;;;2.80;99.90;;;;;;6224949;22;20020;-88
2022/12/02 00:15:41;;;;;;;3.23;1.03;;;2.90;99.90;;;;;;6224584;22;20016;-88
2022/12/02 00:19:17;;;;;;;4.63;1.08;;;2.80;99.90;;;;;;6234852;23;20016;-88
2022/12/02 00:21:43;;;;;;;5.18;1.45;;;2.80;99.90;;;;;;6194700;23;20052;-88
2022/12/02 00:24:09;;;;;;;4.03;1.30;;;4.10;99.90;;;;;;6194751;23;20016;-88
2022/12/02 00:26:37;;;;;;;2.50;0.90;;;3.90;99.90;;;;;;6194932;23;20023;-89
2022/12/02 00:29:03;;;;;;;2.33;0.83;;;2.80;99.90;;;;;;6145770;23;20020;-88
2022/12/02 00:31:29;;;;;;;3.77;1.30;;;2.80;99.90;;;;;;6170504;23;20012;-88
2022/12/02 00:33:59;;;;;;;3.40;1.17;;;3.40;99.90;;;;;;6171009;23;20023;-88
2022/12/02 00:36:28;;;;;;;1.85;0.70;;;2.80;99.90;;;;;;6170539;23;20490;-88
2022/12/02 00:39:12;;;;;;;3.40;1.17;;;3.60;99.90;;;;;;6220760;23;20018;-88
2022/12/02 00:53:05;;;;;;;3.75;1.42;;;2.80;99.90;;;;;;6246282;23;20031;-88
2022/12/02 00:59:43;;;;;;;1.85;1.13;;;4.10;99.90;;;;;;6246274;23;20011;-88
2022/12/02 01:05:57;;;;;;;2.50;1.30;;;2.80;99.90;;;;;;6246228;23;20062;-88
2022/12/02 01:15:54;;;;;;;1.02;0.70;;;2.70;99.90;;;;;;6245205;23;20373;-88
2022/12/02 01:18:22;;;;;;;9.27;1.00;;;3.50;99.90;;;;;;6173235;23;20066;-88
2022/12/02 01:20:48;;;;;;;1.90;1.13;;;3.50;99.90;;;;;;6219456;23;20094;-88
2022/12/02 01:23:14;;;;;;;0.80;0.80;;;2.70;99.90;;;;;;6194360;23;20072;-88
2022/12/02 01:25:47;;;;;;;2.10;0.80;;;1.70;99.90;;;;;;6170282;23;20017;-88
2022/12/02 01:32:01;;;;;;;1.88;0.63;;;2.60;99.90;;;;;;6246022;23;20011;-88
2022/12/02 01:38:27;;;;;;;1.92;1.77;;;2.70;99.90;;;;;;6246806;23;20328;-88
2022/12/02 01:40:58;;;;;;;0.30;0.30;;;3.30;99.90;;;;;;6196484;23;20012;-89
2022/12/02 01:47:18;;;;;;;4.07;1.23;;;2.50;99.90;;;;;;6248053;23;20043;-89
2022/12/02 01:49:51;;;;;;;0.85;0.85;;;2.60;99.90;;;;;;6220394;23;20573;-88
2022/12/02 01:52:28;;;;;;;0.35;0.28;;;2.20;99.90;;;;;;6197799;23;20023;-89
2022/12/02 01:55:38;;;;;;;1.00;0.50;;;2.80;99.90;;;;;;6109566;23;20104;-89
2022/12/02 01:58:40;;;;;;;;;;;;;;;;;;;;;
2022/12/02 02:01:41;;;;;;;;;;;;;;;;;;;;;
2022/12/02 02:04:12;;;;;;;0.65;0.43;;;3.60;99.90;;;;;;6125555;23;20022;-88
2022/12/02 02:13:40;;;;;;;1.92;1.00;;;1.80;99.90;;;;;;6097187;23;20013;-88
2022/12/02 02:19:53;;;;;;;1.05;0.38;;;2.40;99.90;;;;;;6073158;23;20058;-90
2022/12/02 02:22:32;;;;;;;1.13;1.03;;;2.40;99.90;;;;;;6110925;23;20025;-89
2022/12/02 02:25:00;;;;;;;2.53;0.70;;;3.10;99.90;;;;;;6159765;23;20017;-89
2022/12/02 02:27:26;;;;;;;1.92;1.20;;;2.60;99.90;;;;;;6160277;23;20349;-88
2022/12/02 02:29:52;;;;;;;0.60;0.40;;;3.00;99.90;;;;;;6159229;23;20473;-89
2022/12/02 02:32:18;;;;;;;1.23;0.67;;;3.60;99.90;;;;;;6134880;23;20028;-88
2022/12/02 02:34:44;;;;;;;2.50;0.90;;;2.90;99.90;;;;;;6110767;23;20071;-89
2022/12/02 02:37:12;;;;;;;2.70;0.60;;;3.50;99.90;;;;;;6086402;23;20013;-88
2022/12/02 02:39:37;;;;;;;3.00;1.02;;;2.50;99.90;;;;;;6160255;23;20013;-88
2022/12/02 02:45:38;;;;;;;9.98;1.17;;;2.40;99.90;;;;;;6171326;23;20028;-88
2022/12/02 02:48:07;;;;;;;1.27;0.52;;;2.40;99.90;;;;;;6213961;23;20020;-89
2022/12/02 02:51:11;;;;;;;;;;;;;;;;;;;;;
2022/12/02 02:53:51;;;;;;;3.40;0.52;;;3.60;99.90;;;;;;6219482;23;20018;-88
2022/12/02 02:56:20;;;;;;;1.42;0.88;;;3.10;99.90;;;;;;6194968;23;20012;-88
2022/12/02 02:59:08;;;;;;;0.82;0.63;;;2.40;99.90;;;;;;6220307;23;20051;-88
2022/12/02 03:02:00;;;;;;;0.77;0.50;;;2.40;99.90;;;;;;6150359;23;20027;-88
2022/12/02 03:04:31;;;;;;;0.28;0.20;;;3.70;99.90;;;;;;6196735;23;20020;-88
2022/12/02 03:07:13;;;;;;;;;;;;;;;;;;;;;
2022/12/02 03:10:05;;;;;;;2.92;1.02;;;2.20;99.90;;;;;;6225672;23;20514;-89
2022/12/02 03:15:56;;;;;;;1.38;0.40;;;3.40;99.90;;;;;;6228761;23;20409;-88
2022/12/02 03:21:58;;;;;;;0.47;0.47;;;2.20;99.90;;;;;;6221494;23;20020;-88
2022/12/02 03:24:24;;;;;;;0.50;0.47;;;3.30;99.90;;;;;;6195594;23;20008;-88
2022/12/02 03:27:05;;;;;;;3.40;0.70;;;2.70;99.90;;;;;;6195586;23;20016;-89
2022/12/02 03:29:44;;;;;;;1.08;1.02;;;2.10;99.90;;;;;;6173626;23;20616;-88
2022/12/02 03:32:41;;;;;;;3.33;0.55;;;2.10;99.90;;;;;;6139782;23;20061;-88
2022/12/02 03:38:47;;;;;;;0.50;0.32;;;2.20;99.90;;;;;;6153954;23;20029;-88
2022/12/02 03:41:13;;;;;;;0.27;0.27;;;2.40;99.90;;;;;;6137691;23;20012;-88
2022/12/02 03:43:39;;;;;;;2.93;1.57;;;3.10;99.90;;;;;;6220100;23;20051;-88
2022/12/02 03:46:06;;;;;;;3.30;0.90;;;2.90;99.90;;;;;;6194645;23;20035;-88
2022/12/02 03:48:33;;;;;;;4.00;1.75;;;3.20;99.90;;;;;;6195742;23;20015;-88
2022/12/02 03:54:40;;;;;;;2.13;0.73;;;2.10;99.90;;;;;;6246565;22;20030;-89
2022/12/02 03:57:06;;;;;;;2.93;1.27;;;3.10;99.90;;;;;;6219807;23;20497;-89
2022/12/02 03:59:32;;;;;;;1.00;0.40;;;3.20;99.90;;;;;;6195171;23;20399;-88
2022/12/02 04:01:57;;;;;;;1.37;1.13;;;2.60;99.90;;;;;;6144823;23;20020;-88
2022/12/02 04:04:28;;;;;;;1.13;0.23;;;2.10;99.90;;;;;;6194545;23;20023;-88
2022/12/02 04:06:56;;;;;;;2.95;1.55;;;1.80;99.90;;;;;;6219903;23;20356;-88
2022/12/02 04:09:31;;;;;;;0.95;0.80;;;3.10;99.90;;;;;;6149169;23;20016;-88
2022/12/02 04:12:13;;;;;;;2.40;0.47;;;2.10;99.90;;;;;;6194550;23;20457;-89
2022/12/02 04:14:41;;;;;;;1.40;0.70;;;3.10;99.90;;;;;;6196820;23;20020;-88
2022/12/02 04:17:28;;;;;;;1.02;0.60;;;3.30;99.90;;;;;;6194675;23;20074;-88
2022/12/02 04:23:42;;;;;;;1.95;0.40;;;2.10;99.90;;;;;;6246391;23;20023;-88
2022/12/02 04:26:21;;;;;;;2.80;0.63;;;2.00;99.90;;;;;;6194350;23;20074;-88
2022/12/02 04:29:32;;;;;;;0.40;0.32;;;3.40;99.90;;;;;;6210854;23;20019;-89
2022/12/02 04:35:17;;;;;;;;;;;;;;;;;;;;;
2022/12/02 04:37:58;;;;;;;;;;;;;;;;;;;;;
2022/12/02 04:40:29;;;;;;;2.00;1.08;;;1.90;99.90;;;;;;6219043;23;20424;-88
2022/12/02 04:43:00;;;;;;;2.45;1.40;;;3.20;99.90;;;;;;6219094;23;20023;-88
2022/12/02 04:45:38;;;;;;;;;;;;;;;;;;;;;
2022/12/02 04:48:20;;;;;;;;;;;;;;;;;;;;;
2022/12/02 04:50:48;;;;;;;3.83;1.30;;;1.80;99.90;;;;;;6219341;23;20012;-88
2022/12/02 04:53:18;;;;;;;3.45;1.40;;;2.40;99.90;;;;;;6194055;23;20022;-91
2022/12/02 04:55:54;;;;;;;1.17;0.98;;;2.80;99.90;;;;;;6194594;23;20089;-88
2022/12/02 04:58:36;;;;;;;1.63;0.70;;;2.40;99.90;;;;;;6195579;23;20055;-88
2022/12/02 05:01:22;;;;;;;5.57;1.15;;;2.40;99.90;;;;;;6194425;23;20020;-88
2022/12/02 05:03:55;;;;;;;1.67;0.30;;;1.90;99.90;;;;;;6194230;23;20027;-88
2022/12/02 05:06:31;;;;;;;1.10;1.00;;;3.10;99.90;;;;;;6194933;23;20012;-88
2022/12/02 05:09:01;;;;;;;;;;;1.70;99.90;;;;;;6220328;23;20464;-89
2022/12/02 05:15:23;;;;;;;2.42;0.88;;;1.70;99.90;;;;;;6182502;22;20030;-89
2022/12/02 05:17:56;;;;;;;0.82;0.65;;;2.70;99.90;;;;;;6222707;22;20016;-89
2022/12/02 05:20:25;;;;;;;0.80;0.40;;;3.00;99.90;;;;;;6204020;22;20039;-88
2022/12/02 05:22:59;;;;;;;1.40;0.98;;;2.80;99.90;;;;;;6251909;22;20051;-88
2022/12/02 05:25:39;;;;;;;2.30;0.52;;;2.50;99.90;;;;;;6227253;22;20016;-88
2022/12/02 05:28:35;;;;;;;1.48;0.85;;;2.80;99.90;;;;;;6227066;22;20026;-88
2022/12/02 05:31:40;;;;;;;1.00;0.60;;;1.10;99.90;;;;;;6203205;22;20051;-88
2022/12/02 05:37:28;;;;;;;2.67;0.75;;;1.70;99.90;;;;;;6278528;22;20023;-88
2022/12/02 05:40:04;;;;;;;;;;;;;;;;;;;;;
2022/12/02 05:42:43;;;;;;;;;;;;;;;;;;;;;
2022/12/02 05:45:37;;;;;;;;;;;;;;;;;;;;;
2022/12/02 05:48:33;;;;;;;2.42;1.02;;;1.40;99.90;;;;;;6251775;22;20016;-88
2022/12/02 05:51:01;;;;;;;1.13;0.73;;;2.80;99.90;;;;;;6228729;22;20016;-88
2022/12/02 05:53:33;;;;;;;4.63;1.35;;;2.70;99.90;;;;;;6226290;22;20055;-88
2022/12/02 05:56:08;;;;;;;2.00;0.75;;;2.50;99.90;;;;;;6226135;22;20035;-88
2022/12/02 05:59:05;;;;;;;1.65;0.95;;;2.70;99.90;;;;;;6225807;22;20045;-89
2022/12/02 06:02:14;;;;;;;3.17;1.65;;;2.50;99.90;;;;;;6225056;22;20023;-88
2022/12/02 06:05:02;;;;;;;0.77;0.57;;;1.70;99.90;;;;;;6250519;22;20343;-88
2022/12/02 06:07:33;;;;;;;1.90;0.90;;;1.70;99.90;;;;;;6199553;22;20023;-88
2022/12/02 06:10:15;;;;;;;2.85;2.05;;;1.50;99.90;;;;;;6179080;22;20055;-88
2022/12/02 06:12:43;;;;;;;6.70;1.35;;;1.60;99.90;;;;;;6225530;22;20026;-88
2022/12/02 06:15:24;;;;;;;4.07;0.68;;;2.70;99.90;;;;;;6225666;22;20020;-89
2022/12/02 06:18:12;;;;;;;3.80;0.95;;;1.60;99.90;;;;;;6225871;22;20020;-89
2022/12/02 06:20:59;;;;;;;4.30;0.85;;;1.60;99.90;;;;;;6226636;22;20456;-88
2022/12/02 06:23:48;;;;;;;4.90;1.35;;;2.80;99.90;;;;;;6225134;22;20020;-91
2022/12/02 06:26:32;;;;;;;;;;;;;;;;;;;;;
2022/12/02 06:29:11;;;;;;;0.85;0.82;;;2.40;99.90;;;;;;6251162;22;20462;-89
2022/12/02 06:31:49;;;;;;;;;;;;;;;;;;;;;
2022/12/02 06:34:56;;;;;;;3.03;0.73;;;1.70;99.90;;;;;;6250808;22;20039;-89
2022/12/02 06:37:30;;;;;;;2.20;0.77;;;1.60;99.90;;;;;;6196252;22;20395;-88
2022/12/02 06:43:26;;;;;;;4.25;1.35;;;1.70;99.90;;;;;;6229984;22;20444;-88
2022/12/02 06:46:05;;;;;;;12.38;1.13;;;3.10;99.90;;;;;;6200803;22;20023;-88
2022/12/02 06:48:40;;;;;;;2.05;1.00;;;1.90;99.90;;;;;;6225805;22;20467;-88
2022/12/02 06:51:19;;;;;;;1.80;1.35;;;3.10;99.90;;;;;;6226457;22;20026;-88
2022/12/02 06:54:17;;;;;;;;;;;;;;;;;;;;;
2022/12/02 07:00:46;;;;;;;2.97;0.50;;;1.80;99.90;;;;;;6215289;23;20499;-88
2022/12/02 07:17:41;;;;;;;3.63;0.70;;;1.70;99.90;;;;;;6214391;23;20022;-88
2022/12/02 07:24:36;;;;;;;4.68;0.70;;;1.80;99.90;;;;;;6214328;23;20016;-88
2022/12/02 07:27:11;;;;;;;1.65;0.75;;;1.80;99.90;;;;;;6164083;23;20483;-88
2022/12/02 07:34:13;;;;;;;2.55;0.43;;;1.80;99.90;;;;;;6156346;23;20009;-90
2022/12/02 07:40:15;;;;;;;1.40;1.15;;;1.90;99.90;;;;;;6200690;22;20026;-91
2022/12/02 07:42:42;;;;;;;3.75;1.33;;;1.90;99.90;;;;;;6225158;22;20102;-88
2022/12/02 07:45:09;;;;;;;3.97;1.30;;;1.90;99.90;;;;;;6202824;22;20107;-87
2022/12/02 07:47:45;;;;;;;0.40;0.40;;;1.20;99.90;;;;;;6249311;22;20016;-91
2022/12/02 07:50:15;;;;;;;2.67;0.90;;;2.30;99.90;;;;;;6200782;22;20027;-88
2022/12/02 07:52:58;;;;;;;3.15;0.57;;;3.00;99.90;;;;;;6228109;22;20022;-88
2022/12/02 07:55:24;;;;;;;4.10;0.85;;;3.30;99.90;;;;;;6224491;22;20102;-88
2022/12/02 07:57:57;;;;;;;5.03;2.08;;;1.90;99.90;;;;;;6223393;22;20343;-88
2022/12/02 08:00:24;;;;;;;3.58;1.15;;;2.70;99.90;;;;;;6248188;22;20016;-86
2022/12/02 08:02:54;;;;;;;1.65;0.82;;;1.90;99.90;;;;;;6222494;22;20016;-86
2022/12/02 08:05:23;;;;;;;4.45;0.90;;;3.30;99.90;;;;;;6224307;22;20019;-85
2022/12/02 08:07:56;;;;;;;2.00;0.77;;;1.90;99.90;;;;;;6247907;22;20016;-86
2022/12/02 08:10:25;;;;;;;2.30;0.40;;;3.30;99.90;;;;;;6199923;22;20024;-84
2022/12/02 08:12:51;;;;;;;4.72;1.45;;;2.00;99.90;;;;;;6247986;22;20022;-84
2022/12/02 08:15:22;;;;;;;1.80;0.60;;;1.60;99.90;;;;;;6224341;22;20046;-87
2022/12/02 08:17:58;;;;;;;4.03;1.27;;;2.00;99.90;;;;;;6249148;22;20026;-87
2022/12/02 08:20:37;;;;;;;;;;;;;;;;;;;;;
2022/12/02 08:23:36;;;;;;;3.42;0.90;;;1.50;99.90;;;;;;6226532;22;20027;-91
2022/12/02 08:26:43;;;;;;;;;;;;;;;;;;;;;
2022/12/02 08:32:48;;;;;;;;;;;;;;;;;;;;;
2022/12/02 08:36:14;;;;;;;;;;;;;;;;;;;;;
2022/12/02 08:39:23;;;;;;;;;;;;;;;;;;;;;
2022/12/02 08:42:12;;;;;;;;;;;;;;;;;;;;;
2022/12/02 08:44:49;;;;;;;4.32;0.77;;;1.70;99.90;;;;;;6228409;22;20392;-92
2022/12/02 08:47:14;;;;;;;2.42;0.70;;;1.80;99.90;;;;;;6224200;22;20012;-93
2022/12/02 08:49:50;;;;;;;1.80;0.30;;;1.90;99.90;;;;;;6224177;22;20050;-94
2022/12/02 08:52:23;;;;;;;0.68;0.43;;;2.40;99.90;;;;;;6226739;22;20012;-93
2022/12/02 08:54:52;;;;;;;0.20;0.20;;;3.30;99.90;;;;;;6225283;22;20038;-93
2022/12/02 08:57:39;;;;;;;;;;;;;;;;;;;;;
2022/12/02 09:00:15;;;;;;;1.20;1.02;;;1.90;99.90;;;;;;6248859;22;20012;-94
2022/12/02 09:03:05;;;;;;;1.38;1.23;;;1.90;99.90;;;;;;6224385;22;20344;-93
2022/12/02 09:05:40;;;;;;;2.80;0.70;;;1.90;99.90;;;;;;6225475;22;20395;-94
2022/12/02 09:08:14;;;;;;;1.48;1.20;;;1.90;99.90;;;;;;6200243;22;20027;-94
2022/12/02 09:10:42;;;;;;;4.22;0.75;;;1.60;99.90;;;;;;6199510;22;20020;-94
2022/12/02 09:13:25;;;;;;;1.40;0.50;;;1.30;99.90;;;;;;6225260;22;20027;-95
2022/12/02 09:16:05;;;;;;;;;;;2.00;99.90;;;;;;6201109;22;20363;-94
2022/12/02 09:18:40;;;;;;;2.95;1.15;;;2.00;99.90;;;;;;6225966;22;19921;-93
2022/12/02 09:21:37;;;;;;;4.27;1.50;;;2.00;99.90;;;;;;6249277;22;20083;-85
2022/12/02 09:24:35;;;;;;;1.25;0.40;;;3.20;99.90;;;;;;6249293;22;20031;-94
2022/12/02 09:27:06;;;;;;;1.52;0.75;;;2.90;99.90;;;;;;6248733;22;20016;-93
2022/12/02 09:29:47;;;;;;;1.77;0.50;;;3.40;99.90;;;;;;6223906;22;20019;-93
2022/12/02 09:32:13;;;;;;;1.33;0.88;;;2.00;99.90;;;;;;6224313;22;20020;-92
2022/12/02 09:35:13;;;;;;;2.80;1.00;;;2.10;99.90;;;;;;6224189;22;20062;-93
2022/12/02 09:37:44;;;;;;;0.50;0.50;;;2.10;99.90;;;;;;6203888;22;20015;-93
2022/12/02 09:40:13;;;;;;;3.03;0.60;;;2.00;99.90;;;;;;6223404;22;20020;-92
2022/12/02 09:43:30;;;;;;;1.40;0.65;;;2.10;99.90;;;;;;6199871;22;20073;-94
2022/12/02 09:46:01;;;;;;;;;;;;;;;;;;;;;
2022/12/02 09:48:37;;;;;;;4.38;1.42;;;1.30;99.90;;;;;;6248908;22;20012;-93
2022/12/02 09:51:16;;;;;;;;;;;;;;;;;;;;;
2022/12/02 09:53:52;;;;;;;;;;;;;;;;;;;;;
2022/12/02 09:56:29;;;;;;;1.35;0.75;;;3.10;99.90;;;;;;6249977;22;20015;-92
2022/12/02 09:58:59;;;;;;;2.60;1.13;;;1.90;99.90;;;;;;6201153;22;20038;-89
2022/12/02 10:01:40;;;;;;;2.05;1.30;;;1.90;99.90;;;;;;6226595;22;20020;-91
2022/12/02 10:04:26;;;;;;;3.92;0.70;;;2.00;99.90;;;;;;6227379;22;20382;-96
2022/12/02 10:07:14;;;;;;;0.47;0.47;;;3.20;99.90;;;;;;6233176;22;20440;-96
2022/12/02 10:09:52;;;;;;;1.98;1.02;;;3.40;99.90;;;;;;6227717;22;20026;-96
2022/12/02 10:12:22;;;;;;;;;;;2.10;99.90;;;;;;6230977;22;20028;-96
2022/12/02 10:14:57;;;;;;;2.65;0.80;;;2.00;99.90;;;;;;6228692;22;19921;-96
2022/12/02 10:17:28;;;;;;;1.08;0.55;;;3.30;99.90;;;;;;6229788;22;20019;-96
2022/12/02 10:20:11;;;;;;;2.05;1.25;;;3.50;99.90;;;;;;6204169;22;20020;-96
2022/12/02 10:23:18;;;;;;;2.60;0.88;;;3.60;99.90;;;;;;6229282;22;20027;-96
2022/12/02 10:26:19;;;;;;;4.38;1.23;;;2.20;99.90;;;;;;6253218;22;20222;-96
2022/12/02 10:28:59;;;;;;;1.90;1.05;;;2.10;99.90;;;;;;6226814;22;20020;-93
2022/12/02 10:31:25;;;;;;;2.72;0.55;;;3.20;99.90;;;;;;6254653;22;20018;-94
2022/12/02 10:33:58;;;;;;;2.17;0.63;;;1.60;99.90;;;;;;6252380;22;20519;-96
2022/12/02 10:36:37;;;;;;;1.48;1.38;;;3.20;99.90;;;;;;6257100;22;20011;-94
2022/12/02 10:42:10;;;;;;;2.75;1.05;;;3.50;99.90;;;;;;6243141;22;20040;-94
2022/12/02 10:45:17;;;;;;;2.63;2.38;;;2.20;99.90;;;;;;6224427;22;20223;-95
2022/12/02 10:48:13;;;;;;;3.05;0.80;;;2.30;99.90;;;;;;6289604;22;20045;-96
2022/12/02 10:51:07;;;;;;;1.92;0.88;;;1.40;99.90;;;;;;6266064;22;20015;-91
2022/12/02 10:53:43;;;;;;;2.10;0.65;;;3.00;99.90;;;;;;6263490;22;20019;-87
2022/12/02 10:56:36;;;;;;;3.50;2.25;;;2.90;99.90;;;;;;6254585;22;20460;-95
2022/12/02 10:59:02;;;;;;;2.78;0.77;;;2.30;99.90;;;;;;6253113;22;20019;-93
2022/12/02 11:01:29;;;;;;;2.13;0.63;;;3.50;99.90;;;;;;6281323;22;20015;-94
2022/12/02 11:03:57;;;;;;;3.53;1.05;;;3.70;99.90;;;;;;6283256;22;20019;-96
2022/12/02 11:06:24;;;;;;;2.15;0.98;;;2.20;99.90;;;;;;6281555;22;20077;-95
2022/12/02 11:09:20;;;;;;;2.05;0.73;;;1.70;99.90;;;;;;6255764;22;20051;-95
2022/12/02 11:11:49;;;;;;;2.20;0.90;;;2.10;99.90;;;;;;6258439;22;20015;-93
2022/12/02 11:14:44;;;;;;;2.05;0.45;;;2.90;99.90;;;;;;6256096;22;20029;-94
2022/12/02 11:17:11;;;;;;;2.65;1.35;;;2.20;99.90;;;;;;6213068;22;20456;-91
2022/12/02 11:19:45;;;;;;;2.22;1.88;;;2.80;99.90;;;;;;6250521;22;20097;-94
2022/12/02 11:22:46;;;;;;;2.90;1.95;;;2.20;99.90;;;;;;6250358;22;20098;-94
2022/12/02 11:25:41;;;;;;;0.73;0.52;;;2.10;99.90;;;;;;6250949;22;20030;-92
2022/12/02 11:31:30;;;;;;;1.88;0.90;;;2.20;99.90;;;;;;6270657;22;20061;-91
2022/12/02 11:34:02;;;;;;;3.13;1.37;;;2.10;99.90;;;;;;6256565;22;20023;-94
2022/12/02 11:36:29;;;;;;;3.83;1.45;;;3.40;99.90;;;;;;6254897;22;20046;-93
2022/12/02 11:39:04;;;;;;;5.05;1.65;;;3.30;99.90;;;;;;6255303;22;20459;-93
2022/12/02 11:41:53;;;;;;;2.78;0.68;;;3.50;99.90;;;;;;6254550;22;20023;-93
2022/12/02 11:44:53;;;;;;;5.15;1.33;;;3.00;99.90;;;;;;6284377;22;20012;-96
2022/12/02 11:47:37;;;;;;;1.70;0.70;;;2.10;99.90;;;;;;6262856;22;20067;-96
2022/12/02 11:50:15;;;;;;;3.72;1.92;;;2.10;99.90;;;;;;6256875;22;20023;-96
2022/12/02 11:52:47;;;;;;;4.80;2.53;;;2.10;99.90;;;;;;6260352;22;20023;-94
2022/12/02 11:55:28;;;;;;;0.88;0.60;;;2.20;99.90;;;;;;6264692;22;20019;-93
2022/12/02 11:58:01;;;;;;;8.02;1.92;;;1.30;99.90;;;;;;6260099;22;20030;-93
2022/12/02 12:00:39;;;;;;;2.17;1.38;;;2.80;99.90;;;;;;6281764;22;20025;-96
2022/12/02 12:03:29;;;;;;;;;;;;;;;;;;;;;
2022/12/02 12:06:21;;;;;;;6.57;1.77;;;1.70;99.90;;;;;;6284723;22;20019;-96
2022/12/02 12:08:55;;;;;;;6.25;2.33;;;2.90;99.90;;;;;;6258146;22;20019;-96
2022/12/02 12:11:35;;;;;;;2.78;1.25;;;2.10;99.90;;;;;;6263125;22;20019;-96
2022/12/02 12:14:07;;;;;;;2.88;1.02;;;3.00;99.90;;;;;;6258443;22;20023;-96
2022/12/02 12:16:38;;;;;;;5.53;2.10;;;2.10;99.90;;;;;;6259570;22;20093;-96
2022/12/02 12:19:34;;;;;;;6.07;1.00;;;3.50;99.90;;;;;;6260781;22;20025;-96
2022/12/02 12:21:59;;;;;;;1.52;1.15;;;2.80;99.90;;;;;;6288569;22;20030;-96
2022/12/02 12:24:33;;;;;;;1.63;0.90;;;3.20;99.90;;;;;;6260070;22;20019;-96
2022/12/02 12:27:05;;;;;;;3.03;1.38;;;3.20;99.90;;;;;;6290649;22;20023;-96
2022/12/02 12:29:40;;;;;;;3.78;0.93;;;2.10;99.90;;;;;;6285765;22;20015;-96
2022/12/02 12:32:08;;;;;;;2.85;0.90;;;1.30;99.90;;;;;;6284026;22;20034;-96
2022/12/02 12:34:34;;;;;;;2.47;2.13;;;3.20;99.90;;;;;;6285132;22;20119;-96
2022/12/02 12:37:04;;;;;;;1.27;0.90;;;3.30;99.90;;;;;;6283501;22;20448;-96
2022/12/02 12:39:30;;;;;;;2.45;1.73;;;2.10;99.90;;;;;;6259322;22;20023;-96
2022/12/02 12:41:56;;;;;;;2.93;1.67;;;1.20;99.90;;;;;;6282696;22;20022;-96
2022/12/02 12:44:24;;;;;;;1.30;0.90;;;2.10;99.90;;;;;;6257528;22;20466;-96
2022/12/02 12:46:57;;;;;;;1.88;0.93;;;1.40;99.90;;;;;;6284133;22;20023;-96
2022/12/02 12:49:23;;;;;;;5.88;1.50;;;1.30;99.90;;;;;;6309040;22;20049;-96
2022/12/02 12:51:49;;;;;;;2.57;0.80;;;2.00;99.90;;;;;;6257994;22;20019;-96
2022/12/02 12:54:19;;;;;;;4.00;1.73;;;3.10;99.90;;;;;;6259360;22;20011;-96
2022/12/02 12:56:45;;;;;;;3.50;1.55;;;2.80;99.90;;;;;;6261651;22;20046;-96
2022/12/02 12:59:23;;;;;;;;;;;;;;;;;;;;;
2022/12/02 13:01:50;;;;;;;2.67;1.42;;;3.50;99.90;;;;;;6286342;22;20047;-96
2022/12/02 13:04:24;;;;;;;4.63;1.13;;;3.30;99.90;;;;;;6288805;22;20026;-96
2022/12/02 13:06:50;;;;;;;4.47;1.27;;;3.30;99.90;;;;;;6285500;22;20441;-96
2022/12/02 13:09:19;;;;;;;4.67;1.53;;;3.20;99.90;;;;;;6284689;22;20017;-96
2022/12/02 13:11:45;;;;;;;4.13;1.20;;;2.00;99.90;;;;;;6257810;22;20015;-96
2022/12/02 13:14:13;;;;;;;2.07;1.13;;;2.80;99.90;;;;;;6257443;22;20023;-96
2022/12/02 13:16:39;;;;;;;3.78;1.30;;;3.10;99.90;;;;;;6261064;22;20650;-93
2022/12/02 13:19:05;;;;;;;3.40;1.83;;;3.40;99.90;;;;;;6259322;22;20023;-96
2022/12/02 13:21:36;;;;;;;3.87;0.83;;;3.40;99.90;;;;;;6261580;22;20019;-96
2022/12/02 13:24:04;;;;;;;0.93;0.73;;;3.40;99.90;;;;;;6287844;22;20022;-96
2022/12/02 13:26:30;;;;;;;3.03;1.42;;;2.00;99.90;;;;;;6282715;22;20023;-96
2022/12/02 13:28:56;;;;;;;5.80;1.23;;;2.20;99.90;;;;;;6282851;22;20015;-96
2022/12/02 13:31:29;;;;;;;4.45;1.08;;;3.40;99.90;;;;;;6257306;22;20026;-93
2022/12/02 13:33:55;;;;;;;4.10;1.58;;;1.80;99.90;;;;;;6260567;22;20019;-96
2022/12/02 13:36:23;;;;;;;3.43;0.70;;;3.20;99.90;;;;;;6257837;22;20015;-96
2022/12/02 13:38:49;;;;;;;3.28;1.35;;;3.40;99.90;;;;;;6284080;22;20094;-96
2022/12/02 13:41:15;;;;;;;3.97;0.83;;;2.10;99.90;;;;;;6257416;22;20022;-96
2022/12/02 13:43:40;;;;;;;2.33;0.97;;;2.10;99.90;;;;;;6284562;22;20238;-96
2022/12/02 13:46:06;;;;;;;2.87;0.90;;;2.40;99.90;;;;;;6232368;22;20011;-96
2022/12/02 13:48:32;;;;;;;4.37;1.03;;;2.00;99.90;;;;;;6256297;22;20019;-96
2022/12/02 13:51:01;;;;;;;1.37;1.23;;;2.80;99.90;;;;;;6283526;22;20019;-96
2022/12/02 13:53:30;;;;;;;1.10;1.00;;;2.00;99.90;;;;;;6282256;22;20109;-96
2022/12/02 13:55:56;;;;;;;7.00;1.38;;;3.50;99.90;;;;;;6284152;22;20019;-96
2022/12/02 13:58:22;;;;;;;3.30;1.40;;;3.30;99.90;;;;;;6257488;22;20076;-96
2022/12/02 14:00:48;;;;;;;3.40;1.10;;;2.10;99.90;;;;;;6282286;22;20016;-96
2022/12/02 14:03:13;;;;;;;4.47;1.20;;;3.40;99.90;;;;;;6258264;22;20057;-96
2022/12/02 14:05:41;;;;;;;5.10;1.30;;;3.10;99.90;;;;;;6260600;22;20019;-96
2022/12/02 14:08:07;;;;;;;8.13;2.17;;;1.90;99.90;;;;;;6257563;22;20015;-96
2022/12/02 14:10:33;;;;;;;2.80;1.13;;;2.00;99.90;;;;;;6283815;22;20101;-96
2022/12/02 14:12:59;;;;;;;3.53;1.63;;;2.80;99.90;;;;;;6283050;22;20015;-96
2022/12/02 14:15:25;;;;;;;3.57;1.23;;;3.40;99.90;;;;;;6256221;22;20094;-96
2022/12/02 14:17:51;;;;;;;1.23;0.70;;;3.20;99.90;;;;;;6256831;22;20015;-96
2022/12/02 14:20:20;;;;;;;2.95;0.75;;;2.00;99.90;;;;;;6257818;22;20023;-96
2022/12/02 14:22:45;;;;;;;4.03;1.80;;;1.90;99.90;;;;;;6282684;22;20015;-96
2022/12/02 14:25:12;;;;;;;1.37;1.27;;;3.40;99.90;;;;;;6282242;22;20015;-96
2022/12/02 14:27:37;;;;;;;2.60;1.80;;;3.40;99.90;;;;;;6282182;22;20340;-95
2022/12/02 14:30:04;;;;;;;4.80;1.50;;;2.10;99.90;;;;;;6282671;22;20015;-96
2022/12/02 14:32:30;;;;;;;1.95;0.90;;;1.90;99.90;;;;;;6281745;22;20057;-95
2022/12/02 14:34:58;;;;;;;3.00;1.27;;;2.00;99.90;;;;;;6257299;22;20019;-94
2022/12/02 14:37:24;;;;;;;1.83;1.00;;;2.00;99.90;;;;;;6206559;22;20019;-95
2022/12/02 14:40:07;;;;;;;6.10;2.23;;;2.10;99.90;;;;;;6281523;22;20696;-96
2022/12/02 14:42:35;;;;;;;2.90;1.02;;;2.90;99.90;;;;;;6256541;22;20019;-96
2022/12/02 14:45:01;;;;;;;5.53;0.95;;;1.90;99.90;;;;;;6230729;22;20022;-95
2022/12/02 14:47:27;;;;;;;1.97;0.73;;;3.20;99.90;;;;;;6282279;22;20055;-96
2022/12/02 14:49:53;;;;;;;3.87;1.47;;;2.00;99.90;;;;;;6256333;22;20019;-96
2022/12/02 14:52:18;;;;;;;2.73;1.47;;;3.10;99.90;;;;;;6283094;22;20354;-96
2022/12/02 14:54:44;;;;;;;4.67;1.60;;;0.80;99.90;;;;;;6256649;22;20020;-96
2022/12/02 14:57:13;;;;;;;5.70;1.77;;;2.30;99.90;;;;;;6256806;22;20075;-95
2022/12/02 14:59:43;;;;;;;4.18;1.70;;;3.20;99.90;;;;;;6281771;22;20015;-96
2022/12/02 15:02:10;;;;;;;5.70;1.65;;;2.40;99.90;;;;;;6281578;22;20016;-96
2022/12/02 15:04:36;;;;;;;3.38;1.83;;;1.80;99.90;;;;;;6256187;22;20027;-96
2022/12/02 15:07:02;;;;;;;3.10;2.20;;;2.90;99.90;;;;;;6281631;22;20022;-96
2022/12/02 15:09:30;;;;;;;4.35;1.40;;;1.90;99.90;;;;;;6282324;22;20015;-96
2022/12/02 15:11:56;;;;;;;2.97;1.10;;;2.40;99.90;;;;;;6281600;22;20098;-95
2022/12/02 15:14:22;;;;;;;1.98;1.10;;;1.80;99.90;;;;;;6231763;22;20019;-96
2022/12/02 15:16:48;;;;;;;4.33;0.60;;;3.10;99.90;;;;;;6280861;22;20501;-96
2022/12/02 15:19:14;;;;;;;3.57;0.80;;;2.30;99.90;;;;;;6256243;22;20245;-95
2022/12/02 15:21:41;;;;;;;6.20;1.27;;;2.60;99.90;;;;;;6258442;22;20510;-96
2022/12/02 15:24:19;;;;;;;3.50;1.40;;;2.70;99.90;;;;;;6288310;22;20144;-96
2022/12/02 15:30:16;;;;;;;3.65;1.13;;;1.20;99.90;;;;;;6254209;22;20053;-96
2022/12/02 15:33:11;;;;;;;4.75;1.23;;;0.90;99.90;;;;;;6250337;22;20019;-96
2022/12/02 15:36:13;;;;;;;1.17;0.70;;;1.70;99.90;;;;;;6270346;22;20019;-96
2022/12/02 15:41:41;;;;;;;2.65;0.60;;;2.70;99.90;;;;;;6281249;22;20062;-96
2022/12/02 15:44:50;;;;;;;;;;;;;;;;;;;;;
2022/12/02 15:47:50;;;;;;;4.03;1.38;;;1.80;99.90;;;;;;6272518;22;20019;-96
2022/12/02 15:50:40;;;;;;;;;;;;;;;;;;;;;
2022/12/02 15:53:34;;;;;;;3.53;1.65;;;1.10;99.90;;;;;;6269629;22;20015;-96
2022/12/02 15:58:55;;;;;;;1.55;1.13;;;3.00;99.90;;;;;;6276472;22;20069;-94
2022/12/02 16:01:49;;;;;;;4.05;1.67;;;2.30;99.90;;;;;;6295158;22;20019;-96
2022/12/02 16:04:36;;;;;;;;;;;;;;;;;;;;;
2022/12/02 16:07:18;;;;;;;7.20;2.08;;;1.70;99.90;;;;;;6290760;22;20019;-96
2022/12/02 16:10:05;;;;;;;;;;;;;;;;;;;;;
2022/12/02 16:12:40;;;;;;;1.90;1.03;;;1.10;99.90;;;;;;6244939;22;20019;-96
2022/12/02 16:15:57;;;;;;;3.40;0.80;;;3.10;99.90;;;;;;6262249;22;20015;-96
2022/12/02 16:18:28;;;;;;;4.03;1.05;;;2.80;99.90;;;;;;6265090;22;20030;-96
2022/12/02 16:21:14;;;;;;;3.15;0.88;;;1.70;99.90;;;;;;6261729;22;20019;-96
2022/12/02 16:23:50;;;;;;;3.20;0.80;;;1.80;99.90;;;;;;6289814;22;20090;-96
2022/12/02 16:26:29;;;;;;;1.52;0.68;;;1.90;99.90;;;;;;6267521;22;20073;-96
2022/12/02 16:29:18;;;;;;;2.90;1.60;;;2.20;99.90;;;;;;6264268;22;20019;-96
2022/12/02 16:31:49;;;;;;;4.95;0.85;;;1.40;99.90;;;;;;6266240;22;20048;-96
2022/12/02 16:34:25;;;;;;;5.20;1.05;;;1.80;99.90;;;;;;6268440;22;20015;-96
2022/12/02 16:37:16;;;;;;;3.03;0.77;;;3.00;99.90;;;;;;6289071;22;20436;-96
2022/12/02 16:40:14;;;;;;;2.20;1.52;;;3.00;99.90;;;;;;6298117;22;20019;-96